createdAt,value
2023-01-02T00:00:15.797Z,11.00
2023-01-02T00:03:06.816Z,10.90
2023-01-02T00:05:35.847Z,10.90
2023-01-02T00:08:03.718Z,10.80
2023-01-02T00:10:31.498Z,12.30
2023-01-02T00:12:59.355Z,12.70
2023-01-02T00:15:27.219Z,11.20
2023-01-02T00:17:55.108Z,11.60
2023-01-02T00:20:22.896Z,11.80
2023-01-02T00:22:50.919Z,10.80
2023-01-02T00:25:18.784Z,9.70
2023-01-02T00:27:46.652Z,11.70
2023-01-02T00:30:14.520Z,12.90
2023-01-02T00:32:42.500Z,13.00
2023-01-02T00:35:10.262Z,13.40
2023-01-02T00:37:38.429Z,11.30
2023-01-02T00:40:06.721Z,12.20
2023-01-02T00:42:34.752Z,11.80
2023-01-02T00:45:02.542Z,13.50
2023-01-02T00:47:30.361Z,10.30
2023-01-02T00:49:58.090Z,10.30
2023-01-02T00:52:27.203Z,10.30
2023-01-02T00:54:55.045Z,12.10
2023-01-02T00:57:22.893Z,11.00
2023-01-02T00:59:50.753Z,11.90
2023-01-02T01:02:18.657Z,11.10
2023-01-02T01:04:46.696Z,11.80
2023-01-02T01:07:14.555Z,9.70
2023-01-02T01:09:42.532Z,10.20
2023-01-02T01:12:10.519Z,10.80
2023-01-02T01:14:38.475Z,10.70
2023-01-02T01:17:06.211Z,12.10
2023-01-02T01:19:35.029Z,10.00
2023-01-02T01:22:02.847Z,9.00
2023-01-02T01:24:31.112Z,12.50
2023-01-02T01:26:58.827Z,9.60
2023-01-02T01:29:26.645Z,13.10
2023-01-02T01:31:54.401Z,11.60
2023-01-02T01:34:22.182Z,11.50
2023-01-02T01:36:49.894Z,11.30
2023-01-02T01:39:17.623Z,10.40
2023-01-02T01:41:47.057Z,8.10
2023-01-02T01:44:33.397Z,7.80
2023-01-02T01:50:21.233Z,9.30
2023-01-02T01:55:18.888Z,9.50
2023-01-02T01:57:49.354Z,13.00
2023-01-02T02:00:17.604Z,8.00
2023-01-02T02:02:48.257Z,10.90
2023-01-02T02:05:18.033Z,8.00
2023-01-02T02:07:48.258Z,9.80
2023-01-02T02:10:16.021Z,11.40
2023-01-02T02:12:43.804Z,8.90
2023-01-02T02:15:14.821Z,11.00
2023-01-02T02:17:50.977Z,11.90
2023-01-02T02:20:39.534Z,9.80
2023-01-02T02:23:07.247Z,9.80
2023-01-02T02:26:01.509Z,8.50
2023-01-02T02:28:48.065Z,8.90
2023-01-02T02:31:22.139Z,9.10
2023-01-02T02:33:49.838Z,8.40
2023-01-02T02:36:21.839Z,11.10
2023-01-02T02:38:49.651Z,8.20
2023-01-02T02:41:17.868Z,10.30
2023-01-02T02:43:55.758Z,7.80
2023-01-02T02:46:45.043Z,9.30
2023-01-02T02:49:21.685Z,10.90
2023-01-02T02:51:53.248Z,8.80
2023-01-02T02:54:24.079Z,9.80
2023-01-02T02:56:52.993Z,6.60
2023-01-02T02:59:21.709Z,9.30
2023-01-02T03:01:50.020Z,9.40
2023-01-02T03:04:21.712Z,8.80
2023-01-02T03:07:03.851Z,10.40
2023-01-02T03:09:43.643Z,9.80
2023-01-02T03:12:17.358Z,8.50
2023-01-02T03:15:05.200Z,8.20
2023-01-02T03:17:38.327Z,8.80
2023-01-02T03:20:10.411Z,14.10
2023-01-02T03:22:40.927Z,7.90
2023-01-02T03:25:11.149Z,11.10
2023-01-02T03:27:43.411Z,8.90
2023-01-02T03:32:43.738Z,8.40
2023-01-02T03:35:15.444Z,7.80
2023-01-02T03:37:46.380Z,7.80
2023-01-02T03:40:18.480Z,7.50
2023-01-02T03:42:50.168Z,7.60
2023-01-02T03:45:20.867Z,6.70
2023-01-02T03:47:54.985Z,8.80
2023-01-02T03:50:25.415Z,6.50
2023-01-02T03:52:53.590Z,9.00
2023-01-02T03:55:23.987Z,7.60
2023-01-02T03:58:30.646Z,7.40
2023-01-02T04:01:04.699Z,5.80
2023-01-02T04:03:45.821Z,6.10
2023-01-02T04:06:24.912Z,8.10
2023-01-02T04:09:07.828Z,8.80
2023-01-02T04:11:36.982Z,7.50
2023-01-02T04:14:10.452Z,6.60
2023-01-02T04:16:38.983Z,7.30
2023-01-02T04:19:19.852Z,6.80
2023-01-02T04:21:48.968Z,7.40
2023-01-02T04:24:21.893Z,8.10
2023-01-02T04:26:56.383Z,8.40
2023-01-02T04:29:24.326Z,9.60
2023-01-02T04:32:24.441Z,6.80
2023-01-02T04:34:53.079Z,6.60
2023-01-02T04:37:27.368Z,7.00
2023-01-02T04:39:56.783Z,7.20
2023-01-02T04:42:24.633Z,7.30
2023-01-02T04:44:52.467Z,8.40
2023-01-02T04:47:22.042Z,8.50
2023-01-02T04:49:49.946Z,8.20
2023-01-02T04:52:17.707Z,8.80
2023-01-02T04:54:45.515Z,8.20
2023-01-02T04:57:13.379Z,6.70
2023-01-02T04:59:41.118Z,9.80
2023-01-02T05:02:09.020Z,7.40
2023-01-02T05:04:36.871Z,7.10
2023-01-02T05:07:05.027Z,8.40
2023-01-02T05:09:32.830Z,9.30
2023-01-02T05:12:00.634Z,6.30
2023-01-02T05:14:30.352Z,5.30
2023-01-02T05:16:58.137Z,5.60
2023-01-02T05:19:25.868Z,6.30
2023-01-02T05:22:12.666Z,5.40
2023-01-02T05:24:40.507Z,6.90
2023-01-02T05:27:08.280Z,7.10
2023-01-02T05:29:36.123Z,4.40
2023-01-02T05:32:03.915Z,6.50
2023-01-02T05:34:31.754Z,7.40
2023-01-02T05:36:59.622Z,6.60
2023-01-02T05:39:27.412Z,5.50
2023-01-02T05:41:55.256Z,8.00
2023-01-02T05:44:23.016Z,5.60
2023-01-02T05:46:50.874Z,5.50
2023-01-02T05:49:18.752Z,6.70
2023-01-02T05:51:48.095Z,5.60
2023-01-02T05:54:16.239Z,4.50
2023-01-02T05:56:44.019Z,4.90
2023-01-02T05:59:13.761Z,6.50
2023-01-02T06:01:41.793Z,6.20
2023-01-02T06:04:16.094Z,5.90
2023-01-02T06:06:47.556Z,11.50
2023-01-02T06:09:16.128Z,6.70
2023-01-02T06:11:44.022Z,6.30
2023-01-02T06:14:11.854Z,4.70
2023-01-02T06:16:40.257Z,6.60
2023-01-02T06:19:08.167Z,6.80
2023-01-02T06:21:35.983Z,6.10
2023-01-02T06:24:03.941Z,7.80
2023-01-02T06:26:35.129Z,3.00
2023-01-02T06:29:04.009Z,3.90
2023-01-02T06:31:33.711Z,6.50
2023-01-02T06:34:02.604Z,3.80
2023-01-02T06:36:31.687Z,4.10
2023-01-02T06:38:59.747Z,4.90
2023-01-02T06:41:27.706Z,5.40
2023-01-02T06:43:55.476Z,3.90
2023-01-02T06:46:23.952Z,3.80
2023-01-02T06:48:52.166Z,3.70
2023-01-02T06:51:21.558Z,5.40
2023-01-02T06:53:49.355Z,6.20
2023-01-02T06:56:17.804Z,6.20
2023-01-02T06:58:45.855Z,10.40
2023-01-02T07:01:18.092Z,9.90
2023-01-02T07:03:46.079Z,12.20
2023-01-02T07:06:15.523Z,10.60
2023-01-02T07:08:43.572Z,10.00
2023-01-02T07:11:11.424Z,6.30
2023-01-02T07:13:40.167Z,6.30
2023-01-02T07:16:09.320Z,6.50
2023-01-02T07:18:37.271Z,7.30
2023-01-02T07:21:06.088Z,8.20
2023-01-02T07:23:34.406Z,6.00
2023-01-02T07:26:03.564Z,6.20
2023-01-02T07:28:31.809Z,6.90
2023-01-02T07:31:00.714Z,5.60
2023-01-02T07:33:29.375Z,6.20
2023-01-02T07:36:01.386Z,9.60
2023-01-02T07:38:29.424Z,9.80
2023-01-02T07:40:57.266Z,10.50
2023-01-02T07:43:25.057Z,8.00
2023-01-02T07:45:53.073Z,8.70
2023-01-02T07:48:20.901Z,4.80
2023-01-02T07:50:48.727Z,5.00
2023-01-02T07:53:16.520Z,6.00
2023-01-02T07:55:44.321Z,4.70
2023-01-02T07:58:12.169Z,7.00
2023-01-02T08:00:39.981Z,5.00
2023-01-02T08:03:07.786Z,5.50
2023-01-02T08:05:35.857Z,6.40
2023-01-02T08:08:03.711Z,6.50
2023-01-02T08:10:31.994Z,5.30
2023-01-02T08:12:59.778Z,6.00
2023-01-02T08:15:27.533Z,4.60
2023-01-02T08:17:56.419Z,7.80
2023-01-02T08:20:25.289Z,4.50
2023-01-02T08:22:53.263Z,6.90
2023-01-02T08:25:21.075Z,4.90
2023-01-02T08:27:48.853Z,5.40
2023-01-02T08:30:16.916Z,4.70
2023-01-02T08:32:44.746Z,5.20
2023-01-02T08:35:12.532Z,3.60
2023-01-02T08:37:41.750Z,3.50
2023-01-02T08:40:11.624Z,5.60
2023-01-02T08:42:42.884Z,5.40
2023-01-02T08:45:10.957Z,4.70
2023-01-02T08:47:38.714Z,7.50
2023-01-02T08:50:06.774Z,13.60
2023-01-02T08:52:34.550Z,9.20
2023-01-02T08:55:05.623Z,7.50
2023-01-02T09:00:01.048Z,4.00
2023-01-02T09:02:29.085Z,6.20
2023-01-02T09:04:58.792Z,4.80
2023-01-02T09:07:26.633Z,8.70
2023-01-02T09:09:54.402Z,5.40
2023-01-02T09:12:22.210Z,7.30
2023-01-02T09:14:49.986Z,5.80
2023-01-02T09:17:17.711Z,5.40
2023-01-02T09:19:45.480Z,5.10
2023-01-02T09:22:13.293Z,8.00
2023-01-02T09:24:41.942Z,6.80
2023-01-02T09:27:09.857Z,5.50
2023-01-02T09:29:37.619Z,5.90
2023-01-02T09:32:05.431Z,6.00
2023-01-02T09:34:33.239Z,6.90
2023-01-02T09:37:00.992Z,6.60
2023-01-02T09:39:32.604Z,5.80
2023-01-02T09:42:01.813Z,7.10
2023-01-02T09:44:36.172Z,6.00
2023-01-02T09:47:12.287Z,6.90
2023-01-02T09:49:40.459Z,6.60
2023-01-02T09:52:11.521Z,7.60
2023-01-02T09:57:10.194Z,9.70
2023-01-02T09:59:59.574Z,7.70
2023-01-02T10:02:42.933Z,7.50
2023-01-02T10:05:20.570Z,10.50
2023-01-02T10:07:53.072Z,14.80
2023-01-02T10:10:30.510Z,8.30
2023-01-02T10:26:18.386Z,12.80
2023-01-02T10:28:46.214Z,7.60
2023-01-02T10:31:21.204Z,7.90
2023-01-02T10:33:59.336Z,7.70
2023-01-02T10:36:28.496Z,12.00
2023-01-02T10:39:01.136Z,11.00
2023-01-02T10:41:29.495Z,8.40
2023-01-02T10:44:02.271Z,8.80
2023-01-02T10:46:34.580Z,9.80
2023-01-02T10:49:07.800Z,9.00
2023-01-02T10:51:42.841Z,6.60
2023-01-02T10:54:10.620Z,7.10
2023-01-02T10:56:39.866Z,6.90
2023-01-02T10:59:21.738Z,8.20
2023-01-02T11:01:54.463Z,6.80
2023-01-02T11:04:24.219Z,11.80
2023-01-02T11:06:53.831Z,7.90
2023-01-02T11:09:21.551Z,10.00
2023-01-02T11:12:00.490Z,15.20
2023-01-02T11:14:33.061Z,10.60
2023-01-02T11:17:09.912Z,9.70
2023-01-02T11:19:56.582Z,8.40
2023-01-02T11:22:33.716Z,7.90
2023-01-02T11:25:03.368Z,8.90
2023-01-02T11:27:32.745Z,24.50
2023-01-02T11:30:01.055Z,59.90
2023-01-02T11:32:35.876Z,37.60
2023-01-02T11:35:04.654Z,10.00
2023-01-02T11:37:32.406Z,16.30
2023-01-02T11:40:24.904Z,8.90
2023-01-02T11:43:12.053Z,11.40
2023-01-02T11:45:39.885Z,8.50
2023-01-02T11:51:23.669Z,7.80
2023-01-02T11:53:52.918Z,5.80
2023-01-02T11:56:37.443Z,6.40
2023-01-02T11:59:14.379Z,7.10
2023-01-02T12:02:00.725Z,5.50
2023-01-02T12:04:28.777Z,5.30
2023-01-02T12:06:59.428Z,7.60
2023-01-02T12:12:13.261Z,7.70
2023-01-02T12:14:40.972Z,8.40
2023-01-02T12:17:29.395Z,7.90
2023-01-02T12:20:05.587Z,9.30
2023-01-02T12:27:48.505Z,10.00
2023-01-02T12:30:15.957Z,10.10
2023-01-02T12:32:51.476Z,9.20
2023-01-02T12:35:18.043Z,9.90
2023-01-02T12:37:51.453Z,9.20
2023-01-02T12:40:38.172Z,10.70
2023-01-02T12:43:23.316Z,14.20
2023-01-02T12:45:52.960Z,8.30
2023-01-02T12:48:29.469Z,6.60
2023-01-02T12:51:08.014Z,6.90
2023-01-02T12:53:44.310Z,10.30
2023-01-02T12:56:13.858Z,9.90
2023-01-02T12:58:49.526Z,12.50
2023-01-02T13:01:19.126Z,10.00
2023-01-02T13:03:58.954Z,12.80
2023-01-02T13:06:44.762Z,12.80
2023-01-02T13:09:22.957Z,13.10
2023-01-02T13:11:52.647Z,13.10
2023-01-02T13:14:21.328Z,10.70
2023-01-02T13:16:55.098Z,10.40
2023-01-02T13:19:30.430Z,13.90
2023-01-02T13:22:20.213Z,8.40
2023-01-02T13:24:46.767Z,10.10
2023-01-02T13:27:13.504Z,12.70
2023-01-02T13:29:42.173Z,15.80
2023-01-02T13:32:12.210Z,13.80
2023-01-02T13:34:47.436Z,9.90
2023-01-02T13:37:16.117Z,9.80
2023-01-02T13:39:42.693Z,10.10
2023-01-02T13:42:37.592Z,12.00
2023-01-02T13:45:09.000Z,11.00
2023-01-02T13:47:36.973Z,24.80
2023-01-02T13:50:06.505Z,29.70
2023-01-02T13:52:32.919Z,21.10
2023-01-02T13:55:08.586Z,12.40
2023-01-02T13:57:34.993Z,17.80
2023-01-02T14:00:24.276Z,11.60
2023-01-02T14:03:09.670Z,14.70
2023-01-02T14:05:55.189Z,19.10
2023-01-02T14:08:25.543Z,12.10
2023-01-02T14:10:53.099Z,15.80
2023-01-02T14:13:21.898Z,15.70
2023-01-02T14:16:07.313Z,15.70
2023-01-02T14:18:33.799Z,18.60
2023-01-02T14:21:01.549Z,23.60
2023-01-02T14:23:34.757Z,18.20
2023-01-02T14:26:01.204Z,11.10
2023-01-02T14:28:30.809Z,22.10
2023-01-02T14:30:57.570Z,20.20
2023-01-02T14:33:31.774Z,22.50
2023-01-02T14:36:02.079Z,21.40
2023-01-02T14:38:30.683Z,33.30
2023-01-02T14:41:17.092Z,30.70
2023-01-02T14:43:44.028Z,27.60
2023-01-02T14:46:13.455Z,19.10
2023-01-02T14:48:45.897Z,15.80
2023-01-02T14:51:15.612Z,20.50
2023-01-02T14:53:49.605Z,19.30
2023-01-02T14:56:18.302Z,15.60
2023-01-02T14:58:46.565Z,14.00
2023-01-02T15:01:42.011Z,17.40
2023-01-02T15:04:17.269Z,17.30
2023-01-02T15:06:48.548Z,21.90
2023-01-02T15:09:22.919Z,23.20
2023-01-02T15:12:11.755Z,16.50
2023-01-02T15:14:39.518Z,15.80
2023-01-02T15:17:07.908Z,19.40
2023-01-02T15:19:34.845Z,20.30
2023-01-02T15:22:27.623Z,18.40
2023-01-02T15:24:54.337Z,26.20
2023-01-02T15:27:23.495Z,20.50
2023-01-02T15:29:53.130Z,22.30
2023-01-02T15:32:21.649Z,35.80
2023-01-02T15:34:49.765Z,25.00
2023-01-02T15:37:17.870Z,54.50
2023-01-02T15:39:46.573Z,32.20
2023-01-02T15:42:37.410Z,26.00
2023-01-02T15:45:12.973Z,21.70
2023-01-02T15:47:44.912Z,64.30
2023-01-02T15:50:19.275Z,43.90
2023-01-02T15:52:47.547Z,26.70
2023-01-02T15:55:15.663Z,28.70
2023-01-02T15:57:49.937Z,41.20
2023-01-02T16:00:36.684Z,24.10
2023-01-02T16:03:03.453Z,20.40
2023-01-02T16:05:42.357Z,21.90
2023-01-02T16:08:15.917Z,17.40
2023-01-02T16:10:47.628Z,21.70
2023-01-02T16:13:37.351Z,25.10
2023-01-02T16:16:15.648Z,36.30
2023-01-02T16:18:47.328Z,44.40
2023-01-02T16:21:14.879Z,48.60
2023-01-02T16:23:46.132Z,40.70
2023-01-02T16:26:13.448Z,56.10
2023-01-02T16:28:41.756Z,57.60
2023-01-02T16:31:09.567Z,28.10
2023-01-02T16:33:37.282Z,20.70
2023-01-02T16:36:03.669Z,46.50
2023-01-02T16:38:53.270Z,38.60
2023-01-02T16:41:33.291Z,94.80
2023-01-02T16:44:00.189Z,36.60
2023-01-02T16:46:27.645Z,27.10
2023-01-02T16:48:58.381Z,24.80
2023-01-02T16:51:28.023Z,17.80
2023-01-02T16:53:54.376Z,15.90
2023-01-02T16:56:20.746Z,15.20
2023-01-02T16:58:47.550Z,15.60
2023-01-02T17:01:14.970Z,16.70
2023-01-02T17:03:41.544Z,22.70
2023-01-02T17:06:12.987Z,26.70
2023-01-02T17:08:40.617Z,17.70
2023-01-02T17:11:07.444Z,14.50
2023-01-02T17:13:33.990Z,15.80
2023-01-02T17:16:00.600Z,25.50
2023-01-02T17:18:27.358Z,70.90
2023-01-02T17:20:53.896Z,32.60
2023-01-02T17:23:20.529Z,28.80
2023-01-02T17:25:47.070Z,34.90
2023-01-02T17:28:14.226Z,37.30
2023-01-02T17:30:41.403Z,32.00
2023-01-02T17:33:07.896Z,26.10
2023-01-02T17:35:34.542Z,23.10
2023-01-02T17:38:01.175Z,25.10
2023-01-02T17:40:27.613Z,27.70
2023-01-02T17:42:54.179Z,25.50
2023-01-02T17:45:20.963Z,49.90
2023-01-02T17:48:10.495Z,27.40
2023-01-02T17:50:33.973Z,22.30
2023-01-02T17:53:00.677Z,26.50
2023-01-02T17:55:27.316Z,25.30
2023-01-02T17:57:53.873Z,51.30
2023-01-02T18:00:22.650Z,35.60
2023-01-02T18:02:49.137Z,43.60
2023-01-02T18:05:15.898Z,49.20
2023-01-02T18:07:42.312Z,54.20
2023-01-02T18:10:10.403Z,49.30
2023-01-02T18:12:39.118Z,40.30
2023-01-02T18:15:13.560Z,55.40
2023-01-02T18:17:40.145Z,26.50
2023-01-02T18:20:10.823Z,24.40
2023-01-02T18:22:39.939Z,31.20
2023-01-02T18:25:18.626Z,25.30
2023-01-02T18:27:45.583Z,23.90
2023-01-02T18:30:22.148Z,22.00
2023-01-02T18:32:49.353Z,21.80
2023-01-02T18:35:55.582Z,19.80
2023-01-02T18:38:34.191Z,21.00
2023-01-02T18:41:09.759Z,22.40
2023-01-02T18:43:36.235Z,23.00
2023-01-02T18:46:10.184Z,19.00
2023-01-02T18:48:38.520Z,16.70
2023-01-02T18:51:09.046Z,17.40
2023-01-02T18:53:42.804Z,18.30
2023-01-02T18:56:15.102Z,20.80
2023-01-02T18:58:43.247Z,18.60
2023-01-02T19:01:22.337Z,20.70
2023-01-02T19:03:49.276Z,18.50
2023-01-02T19:06:17.883Z,18.80
2023-01-02T19:08:44.276Z,22.90
2023-01-02T19:11:34.847Z,25.40
2023-01-02T19:14:09.830Z,30.60
2023-01-02T19:16:36.367Z,23.00
2023-01-02T19:19:08.633Z,18.20
2023-01-02T19:21:35.168Z,30.90
2023-01-02T19:24:09.152Z,34.60
2023-01-02T19:26:38.433Z,23.20
2023-01-02T19:29:08.824Z,16.40
2023-01-02T19:31:41.461Z,21.30
2023-01-02T19:34:28.075Z,22.20
2023-01-02T19:37:03.639Z,19.00
2023-01-02T19:39:33.865Z,18.20
2023-01-02T19:42:18.791Z,20.60
2023-01-02T19:44:49.457Z,26.40
2023-01-02T19:47:16.251Z,21.50
2023-01-02T19:49:42.635Z,20.10
2023-01-02T19:52:09.529Z,18.70
2023-01-02T19:54:38.154Z,23.10
2023-01-02T19:57:05.501Z,20.70
2023-01-02T19:59:32.247Z,21.10
2023-01-02T20:01:58.725Z,19.80
2023-01-02T20:04:25.932Z,22.20
2023-01-02T20:06:52.673Z,20.80
2023-01-02T20:09:23.860Z,20.50
2023-01-02T20:14:35.828Z,15.50
2023-01-02T20:17:02.495Z,21.20
2023-01-02T20:19:29.022Z,21.40
2023-01-02T20:21:55.520Z,24.70
2023-01-02T20:24:21.914Z,21.40
2023-01-02T20:26:48.839Z,22.00
2023-01-02T20:29:15.576Z,19.30
2023-01-02T20:31:42.392Z,19.00
2023-01-02T20:34:08.953Z,17.00
2023-01-02T20:36:35.503Z,16.50
2023-01-02T20:39:02.476Z,19.90
2023-01-02T20:41:29.049Z,20.90
2023-01-02T20:43:55.692Z,18.80
2023-01-02T20:46:22.167Z,18.10
2023-01-02T20:48:48.759Z,19.50
2023-01-02T20:51:15.292Z,18.10
2023-01-02T20:53:41.645Z,18.60
2023-01-02T20:56:08.421Z,20.00
2023-01-02T20:58:34.933Z,35.40
2023-01-02T21:01:01.792Z,28.70
2023-01-02T21:03:28.254Z,22.60
2023-01-02T21:05:54.832Z,20.50
2023-01-02T21:08:21.355Z,17.50
2023-01-02T21:10:47.748Z,16.00
2023-01-02T21:13:14.234Z,18.30
2023-01-02T21:15:44.119Z,23.50
2023-01-02T21:18:17.731Z,18.60
2023-01-02T21:20:46.737Z,17.50
2023-01-02T21:23:13.852Z,17.00
2023-01-02T21:25:40.410Z,14.90
2023-01-02T21:28:07.458Z,18.80
2023-01-02T21:30:34.113Z,18.20
2023-01-02T21:33:00.532Z,16.20
2023-01-02T21:35:27.083Z,18.40
2023-01-02T21:37:53.574Z,15.90
2023-01-02T21:40:20.339Z,17.00
2023-01-02T21:42:47.516Z,14.80
2023-01-02T21:45:14.081Z,16.60
2023-01-02T21:47:40.486Z,16.40
2023-01-02T21:50:07.589Z,20.90
2023-01-02T21:52:33.907Z,16.20
2023-01-02T21:55:00.286Z,18.10
2023-01-02T21:57:45.654Z,18.50
2023-01-02T22:00:14.181Z,19.10
2023-01-02T22:02:42.908Z,17.20
2023-01-02T22:05:10.938Z,18.80
2023-01-02T22:07:42.197Z,21.10
2023-01-02T22:10:09.816Z,19.50
2023-01-02T22:12:36.355Z,16.40
2023-01-02T22:15:07.175Z,16.70
2023-01-02T22:17:33.941Z,20.20
2023-01-02T22:20:01.054Z,15.50
2023-01-02T22:22:27.586Z,18.40
2023-01-02T22:24:54.042Z,17.10
2023-01-02T22:27:21.148Z,18.40
2023-01-02T22:32:35.038Z,14.60
2023-01-02T22:35:03.206Z,17.70
2023-01-02T22:37:29.678Z,16.30
2023-01-02T22:39:56.176Z,17.70
2023-01-02T22:43:02.770Z,19.00
2023-01-02T22:45:40.247Z,18.90
2023-01-02T22:48:07.959Z,18.20
2023-01-02T22:50:39.753Z,15.30
2023-01-02T22:53:09.470Z,15.80
2023-01-02T22:55:35.823Z,16.80
2023-01-02T22:58:02.232Z,17.90
2023-01-02T23:00:28.669Z,16.60
2023-01-02T23:02:56.555Z,17.30
2023-01-02T23:05:23.029Z,14.40
2023-01-02T23:07:49.920Z,16.30
2023-01-02T23:10:16.872Z,14.50
2023-01-02T23:12:43.384Z,15.70
2023-01-02T23:15:11.260Z,16.80
2023-01-02T23:17:56.940Z,14.40
2023-01-02T23:20:24.006Z,14.30
2023-01-02T23:22:50.520Z,16.10
2023-01-02T23:25:16.958Z,17.50
2023-01-02T23:27:43.462Z,12.60
2023-01-02T23:30:11.043Z,14.10
2023-01-02T23:32:37.700Z,15.60
2023-01-02T23:35:04.420Z,14.40
2023-01-02T23:37:30.771Z,9.40
2023-01-02T23:39:57.195Z,10.30
2023-01-02T23:42:23.533Z,16.40
2023-01-02T23:44:49.903Z,9.10
2023-01-02T23:47:19.233Z,6.50
2023-01-02T23:49:45.942Z,7.60
2023-01-02T23:52:12.522Z,7.10
2023-01-02T23:54:39.077Z,7.40
2023-01-02T23:57:05.671Z,7.50
2023-01-02T23:59:32.017Z,7.50
